createdAt,value
2023-02-11T00:01:11.376Z,1.01
2023-02-11T00:03:39.685Z,1.01
2023-02-11T00:06:11.911Z,1.01
2023-02-11T00:08:40.221Z,1.01
2023-02-11T00:11:10.416Z,1.02
2023-02-11T00:13:38.064Z,0.99
2023-02-11T00:16:10.622Z,0.99
2023-02-11T00:18:38.756Z,1.00
2023-02-11T00:21:11.636Z,1.00
2023-02-11T00:23:39.995Z,1.02
2023-02-11T00:26:17.743Z,1.02
2023-02-11T00:28:46.894Z,1.04
2023-02-11T00:31:16.222Z,1.05
2023-02-11T00:33:44.768Z,1.05
2023-02-11T00:36:16.601Z,1.07
2023-02-11T00:38:46.116Z,1.07
2023-02-11T00:41:15.615Z,1.08
2023-02-11T00:43:43.889Z,1.08
2023-02-11T00:46:12.308Z,1.09
2023-02-11T00:48:40.679Z,1.09
2023-02-11T00:51:09.090Z,1.08
2023-02-11T00:53:36.804Z,1.08
2023-02-11T00:56:05.385Z,1.07
2023-02-11T00:58:33.483Z,1.06
2023-02-11T07:01:42.283Z,1.44
2023-02-11T07:04:10.445Z,1.46
2023-02-11T07:06:38.219Z,1.46
2023-02-11T07:09:05.959Z,1.45
2023-02-11T07:11:34.072Z,1.43
2023-02-11T07:14:08.504Z,1.43
2023-02-11T07:16:36.775Z,1.44
2023-02-11T07:19:04.733Z,1.41
2023-02-11T07:21:32.569Z,1.39
2023-02-11T07:24:00.292Z,1.38
2023-02-11T07:26:29.221Z,1.37
2023-02-11T07:28:56.996Z,1.36
2023-02-11T07:31:27.436Z,1.36
2023-02-11T07:34:00.073Z,1.35
2023-02-11T07:36:29.824Z,1.36
2023-02-11T07:38:58.406Z,1.35
2023-02-11T07:41:28.296Z,1.37
2023-02-11T07:43:56.472Z,1.36
2023-02-11T07:46:27.480Z,1.36
2023-02-11T07:48:55.788Z,1.40
2023-02-11T07:51:27.171Z,1.43
2023-02-11T07:53:57.664Z,1.43
2023-02-11T07:56:25.708Z,1.43
2023-02-11T07:58:54.534Z,1.46
2023-02-11T08:01:28.472Z,1.47
2023-02-11T08:03:58.465Z,1.46
2023-02-11T08:06:29.202Z,1.47
2023-02-11T08:08:57.203Z,1.43
2023-02-11T08:11:27.737Z,1.40
2023-02-11T08:13:56.698Z,1.38
2023-02-11T08:16:27.212Z,1.34
2023-02-11T08:19:00.400Z,1.33
2023-02-11T08:21:28.688Z,1.29
2023-02-11T08:23:56.752Z,1.26
2023-02-11T08:26:29.030Z,1.25
2023-02-11T08:28:57.936Z,1.25
2023-02-11T08:31:33.385Z,1.24
2023-02-11T08:34:02.608Z,1.21
2023-02-11T08:36:34.268Z,1.17
2023-02-11T08:39:17.960Z,1.19
2023-02-11T08:41:49.383Z,1.20
2023-02-11T08:44:18.783Z,1.20
2023-02-11T08:46:47.446Z,1.20
2023-02-11T08:49:15.697Z,1.18
2023-02-11T08:51:44.131Z,1.17
2023-02-11T08:54:12.546Z,1.18
2023-02-11T08:56:40.567Z,1.23
2023-02-11T08:59:11.533Z,1.26
2023-02-11T09:01:39.565Z,1.27
2023-02-11T09:04:08.373Z,1.30
2023-02-11T09:06:36.169Z,1.32
2023-02-11T09:09:04.800Z,1.29
2023-02-11T09:11:35.241Z,1.31
2023-02-11T09:14:04.505Z,1.32
2023-02-11T09:16:35.764Z,1.35
2023-02-11T09:19:05.489Z,1.44
2023-02-11T09:21:33.571Z,1.47
2023-02-11T09:24:01.860Z,1.53
2023-02-11T09:26:32.480Z,1.54
2023-02-11T09:29:01.268Z,1.57
2023-02-11T09:31:31.391Z,1.55
2023-02-11T09:34:02.550Z,1.54
2023-02-11T09:36:34.693Z,1.53
2023-02-11T09:39:02.473Z,1.52
2023-02-11T09:42:01.276Z,1.53
2023-02-11T09:44:32.302Z,1.53
2023-02-11T09:47:06.311Z,1.53
2023-02-11T09:49:40.988Z,1.54
2023-02-11T09:52:15.780Z,1.56
2023-02-11T09:54:55.450Z,1.56
2023-02-11T09:57:36.309Z,1.57
2023-02-11T10:00:19.389Z,1.58
2023-02-11T10:03:05.576Z,1.59
2023-02-11T10:05:53.780Z,1.64
2023-02-11T10:08:40.448Z,1.63
2023-02-11T10:11:32.102Z,1.64
2023-02-11T10:14:07.494Z,1.64
2023-02-11T10:16:53.537Z,1.63
2023-02-11T10:19:43.157Z,1.60
2023-02-11T10:22:20.038Z,1.60
2023-02-11T10:24:58.576Z,1.57
2023-02-11T10:27:35.537Z,1.54
2023-02-11T10:30:28.731Z,1.52
2023-02-11T10:33:20.851Z,1.52
2023-02-11T10:35:49.080Z,1.49
2023-02-11T10:38:16.908Z,1.52
2023-02-11T10:40:45.006Z,1.54
2023-02-11T10:43:17.918Z,1.53
2023-02-11T10:45:51.420Z,1.57
2023-02-11T10:48:42.879Z,1.59
2023-02-11T10:51:18.694Z,1.60
2023-02-11T10:53:48.607Z,1.62
2023-02-11T10:56:30.468Z,1.63
2023-02-11T10:59:01.167Z,1.66
2023-02-11T11:01:53.897Z,1.67
2023-02-11T11:04:31.250Z,1.68
2023-02-11T11:07:25.609Z,1.71
2023-02-11T11:10:28.126Z,1.72
2023-02-11T11:12:56.002Z,1.74
2023-02-11T11:15:29.878Z,1.77
2023-02-11T11:18:21.401Z,1.79
2023-02-11T11:21:13.737Z,1.82
2023-02-11T11:23:49.422Z,1.85
2023-02-11T11:26:17.971Z,1.89
2023-02-11T11:28:54.671Z,1.88
2023-02-11T11:31:27.123Z,1.89
2023-02-11T11:33:58.180Z,1.93
2023-02-11T11:36:35.474Z,1.96
2023-02-11T11:39:18.683Z,1.96
2023-02-11T11:41:56.416Z,1.99
2023-02-11T11:44:32.948Z,2.01
2023-02-11T11:47:13.612Z,2.02
2023-02-11T11:49:51.219Z,2.04
2023-02-11T11:52:27.727Z,2.03
2023-02-11T11:55:11.511Z,2.04
2023-02-11T11:57:40.732Z,2.04
2023-02-11T12:00:53.682Z,2.00
2023-02-11T12:03:34.312Z,1.97
2023-02-11T12:06:26.858Z,1.95
2023-02-11T12:09:21.823Z,1.99
2023-02-11T12:12:17.257Z,2.01
2023-02-11T12:15:11.951Z,2.00
2023-02-11T12:18:06.097Z,1.99
2023-02-11T12:20:36.771Z,2.01
2023-02-11T12:23:38.748Z,2.02
2023-02-11T12:26:20.531Z,2.03
2023-02-11T12:29:16.040Z,2.03
2023-02-11T12:31:55.155Z,2.07
2023-02-11T12:34:45.341Z,2.10
2023-02-11T12:37:32.767Z,2.11
2023-02-11T12:40:17.181Z,2.18
2023-02-11T12:43:16.595Z,2.21
2023-02-11T12:45:47.141Z,2.25
2023-02-11T12:48:45.788Z,2.30
2023-02-11T12:51:32.563Z,2.33
2023-02-11T12:54:33.349Z,2.36
2023-02-11T12:57:17.546Z,2.40
2023-02-11T12:59:47.836Z,2.45
2023-02-11T13:02:30.650Z,2.48
2023-02-11T13:05:04.603Z,2.55
2023-02-11T13:07:41.805Z,2.61
2023-02-11T13:10:21.843Z,2.64
2023-02-11T13:13:10.425Z,2.67
2023-02-11T13:15:39.264Z,2.68
2023-02-11T13:18:22.506Z,2.72
2023-02-11T13:21:10.448Z,2.75
2023-02-11T13:24:07.907Z,2.74
2023-02-11T13:26:47.596Z,2.77
2023-02-11T13:29:24.629Z,2.80
2023-02-11T13:32:12.154Z,2.81
2023-02-11T13:34:43.001Z,2.80
2023-02-11T13:37:36.326Z,2.79
2023-02-11T13:40:19.088Z,2.82
2023-02-11T13:42:53.399Z,2.82
2023-02-11T13:45:31.582Z,2.82
2023-02-11T13:48:02.220Z,2.81
2023-02-11T13:50:35.511Z,2.81
2023-02-11T13:53:07.276Z,2.81
2023-02-11T13:55:36.019Z,2.80
2023-02-11T13:58:06.709Z,2.81
2023-02-11T14:00:34.546Z,2.83
2023-02-11T14:03:45.818Z,2.82
2023-02-11T14:06:36.013Z,2.83
2023-02-11T14:09:09.690Z,2.81
2023-02-11T14:11:43.015Z,2.82
2023-02-11T14:14:33.944Z,2.85
2023-02-11T14:17:07.782Z,2.86
2023-02-11T14:19:41.159Z,2.88
2023-02-11T14:22:19.851Z,2.90
2023-02-11T14:25:05.640Z,2.89
2023-02-11T14:27:39.323Z,2.89
2023-02-11T14:30:45.794Z,2.88
2023-02-11T14:33:16.260Z,2.87
2023-02-11T14:35:58.681Z,2.88
2023-02-11T14:38:26.297Z,2.89
2023-02-11T14:41:14.959Z,2.88
2023-02-11T14:43:47.989Z,2.87
2023-02-11T14:46:18.869Z,2.87
2023-02-11T14:48:50.613Z,2.88
2023-02-11T14:51:23.629Z,2.88
2023-02-11T14:53:55.665Z,2.86
2023-02-11T14:56:26.726Z,2.87
2023-02-11T14:58:55.388Z,2.87
2023-02-11T15:01:35.447Z,2.88
2023-02-11T15:04:06.412Z,2.91
2023-02-11T15:06:40.124Z,2.91
2023-02-11T15:09:17.305Z,2.92
2023-02-11T15:11:48.633Z,2.90
2023-02-11T15:14:36.586Z,2.92
2023-02-11T15:17:08.235Z,2.89
2023-02-11T15:19:41.259Z,2.92
2023-02-11T15:22:18.832Z,2.92
2023-02-11T15:24:59.218Z,2.91
2023-02-11T15:27:27.396Z,2.92
2023-02-11T15:29:55.212Z,2.93
2023-02-11T15:32:26.022Z,2.93
2023-02-11T15:34:54.520Z,2.94
2023-02-11T15:37:26.106Z,2.92
2023-02-11T15:39:54.285Z,2.93
2023-02-11T15:42:40.841Z,2.92
2023-02-11T15:45:15.082Z,2.92
2023-02-11T15:47:50.940Z,2.93
2023-02-11T15:50:26.040Z,2.95
2023-02-11T15:52:55.674Z,2.95
2023-02-11T15:55:27.260Z,3.00
2023-02-11T15:57:58.531Z,3.02
2023-02-11T16:00:46.401Z,3.01
2023-02-11T16:03:33.184Z,3.02
2023-02-11T16:06:22.107Z,3.02
2023-02-11T16:09:04.839Z,3.03
2023-02-11T16:11:58.249Z,3.03
2023-02-11T16:14:39.419Z,3.04
2023-02-11T16:17:26.237Z,3.04
2023-02-11T16:19:54.892Z,3.03
2023-02-11T16:22:30.543Z,3.07
2023-02-11T16:25:00.033Z,3.04
2023-02-11T16:27:41.137Z,3.05
2023-02-11T16:30:29.217Z,3.04
2023-02-11T16:32:56.961Z,3.06
2023-02-11T16:35:24.737Z,3.04
2023-02-11T16:37:52.528Z,3.06
2023-02-11T16:40:20.351Z,3.05
2023-02-11T16:42:47.997Z,3.07
2023-02-11T16:45:15.856Z,3.07
2023-02-11T16:47:43.639Z,3.06
2023-02-11T16:50:20.847Z,3.07
2023-02-11T16:52:49.010Z,3.08
2023-02-11T16:55:17.278Z,3.09
2023-02-11T16:57:45.078Z,3.07
2023-02-11T17:00:16.664Z,3.08
2023-02-11T17:02:44.459Z,3.10
2023-02-11T17:05:24.915Z,3.09
2023-02-11T17:07:52.784Z,3.10
2023-02-11T17:10:23.190Z,3.11
2023-02-11T17:12:51.364Z,3.13
2023-02-11T17:15:19.142Z,3.11
2023-02-11T17:17:46.832Z,3.13
2023-02-11T17:20:15.377Z,3.15
2023-02-11T17:22:43.093Z,3.18
2023-02-11T17:25:11.302Z,3.19
2023-02-11T17:27:39.066Z,3.21
2023-02-11T17:30:07.616Z,3.20
2023-02-11T17:32:36.552Z,3.19
2023-02-11T17:35:06.427Z,3.21
2023-02-11T17:37:34.098Z,3.21
2023-02-11T17:40:01.846Z,3.19
2023-02-11T17:42:31.313Z,3.22
2023-02-11T17:44:59.065Z,3.23
2023-02-11T17:47:26.757Z,3.23
2023-02-11T17:49:54.465Z,3.24
2023-02-11T17:52:24.169Z,3.27
2023-02-11T17:54:51.964Z,3.28
2023-02-11T17:57:19.716Z,3.29
2023-02-11T17:59:47.573Z,3.28
2023-02-11T18:02:15.351Z,3.29
2023-02-11T18:04:43.144Z,3.29
2023-02-11T18:07:10.909Z,3.31
2023-02-11T18:09:40.427Z,3.32
2023-02-11T18:12:09.067Z,3.31
2023-02-11T18:14:40.441Z,3.31
2023-02-11T18:17:08.976Z,3.30
2023-02-11T18:19:37.722Z,3.32
2023-02-11T18:22:05.508Z,3.30
2023-02-11T18:24:33.241Z,3.30
2023-02-11T18:27:01.000Z,3.29
2023-02-11T18:29:28.810Z,3.29
2023-02-11T18:31:57.420Z,3.31
2023-02-11T18:34:25.716Z,3.31
2023-02-11T18:36:53.578Z,3.32
2023-02-11T18:39:24.271Z,3.31
2023-02-11T18:41:56.774Z,3.32
2023-02-11T18:44:25.565Z,3.31
2023-02-11T18:46:53.716Z,3.30
2023-02-11T18:49:21.430Z,3.29
2023-02-11T18:51:49.154Z,3.29
2023-02-11T18:54:16.973Z,3.31
2023-02-11T18:56:45.144Z,3.30
2023-02-11T18:59:13.077Z,3.31
2023-02-11T19:01:43.391Z,3.31
2023-02-11T19:04:11.443Z,3.33
2023-02-11T19:06:39.627Z,3.31
2023-02-11T19:09:17.235Z,3.32
2023-02-11T19:11:52.351Z,3.33
2023-02-11T19:14:24.575Z,3.35
2023-02-11T19:16:55.605Z,3.35
2023-02-11T19:19:25.473Z,3.37
2023-02-11T19:21:53.507Z,3.36
2023-02-11T19:24:23.405Z,3.37
2023-02-11T19:26:53.348Z,3.38
2023-02-11T19:29:21.310Z,3.39
2023-02-11T19:31:49.994Z,3.42
2023-02-11T19:34:20.048Z,3.42
2023-02-11T19:36:49.538Z,3.44
2023-02-11T19:39:18.462Z,3.46
2023-02-11T19:41:46.305Z,3.49
2023-02-11T19:44:14.413Z,3.51
2023-02-11T19:46:42.188Z,3.51
2023-02-11T19:49:14.801Z,3.53
2023-02-11T19:51:42.453Z,3.53
2023-02-11T19:54:10.290Z,3.56
2023-02-11T19:56:38.024Z,3.57
2023-02-11T19:59:08.876Z,3.58
2023-02-11T20:01:37.098Z,3.57
2023-02-11T20:04:04.933Z,3.59
2023-02-11T20:06:34.292Z,3.61
2023-02-11T20:09:06.586Z,3.66
2023-02-11T20:11:35.548Z,3.71
2023-02-11T20:14:04.829Z,3.75
2023-02-11T20:16:47.539Z,3.78
2023-02-11T20:19:18.961Z,3.82
2023-02-11T20:21:49.054Z,3.82
2023-02-11T20:24:18.277Z,3.84
2023-02-11T20:26:48.595Z,3.86
2023-02-11T20:29:17.870Z,3.89
2023-02-11T20:31:45.909Z,3.92
2023-02-11T20:34:14.414Z,3.93
2023-02-11T20:36:42.241Z,3.96
2023-02-11T20:39:11.486Z,3.94
2023-02-11T20:41:41.845Z,3.96
2023-02-11T20:44:10.748Z,3.96
2023-02-11T20:46:41.953Z,3.95
2023-02-11T20:49:15.694Z,3.96
2023-02-11T20:51:46.006Z,3.97
2023-02-11T20:54:17.828Z,3.99
2023-02-11T20:56:48.502Z,3.99
2023-02-11T20:59:16.908Z,3.99
2023-02-11T21:01:48.358Z,3.99
2023-02-11T21:04:22.594Z,4.00
2023-02-11T21:06:53.738Z,4.01
2023-02-11T21:09:24.674Z,4.01
2023-02-11T21:11:54.301Z,4.02
2023-02-11T21:14:24.071Z,4.03
2023-02-11T21:16:52.474Z,4.02
2023-02-11T21:19:20.384Z,4.02
2023-02-11T21:21:48.421Z,4.03
2023-02-11T21:24:16.234Z,4.02
2023-02-11T21:26:44.132Z,4.00
2023-02-11T21:29:12.058Z,4.00
2023-02-11T21:31:40.160Z,3.97
2023-02-11T21:34:08.110Z,3.97
2023-02-11T21:36:35.906Z,3.96
2023-02-11T21:39:04.277Z,3.94
2023-02-11T21:41:32.070Z,3.93
2023-02-11T21:43:59.791Z,3.91
2023-02-11T21:46:27.890Z,3.90
2023-02-11T21:48:57.493Z,3.89
2023-02-11T21:51:26.337Z,3.89
2023-02-11T21:53:55.589Z,3.89
2023-02-11T21:56:24.341Z,3.88
2023-02-11T21:58:54.095Z,3.86
2023-02-11T22:01:31.145Z,3.85
2023-02-11T22:03:59.869Z,3.83
2023-02-11T22:06:31.151Z,3.81
2023-02-11T22:09:04.211Z,3.74
2023-02-11T22:11:32.083Z,3.66
2023-02-11T22:13:59.853Z,3.59
2023-02-11T22:16:28.748Z,3.52
2023-02-11T22:18:58.740Z,3.45
2023-02-11T22:21:27.967Z,3.39
2023-02-11T22:23:56.371Z,3.36
2023-02-11T22:26:26.769Z,3.29
2023-02-11T22:28:55.393Z,3.23
2023-02-11T22:31:26.799Z,3.16
2023-02-11T22:33:54.676Z,3.11
2023-02-11T22:36:33.551Z,3.08
2023-02-11T22:39:04.537Z,3.03
2023-02-11T22:41:33.370Z,2.97
2023-02-11T22:44:01.380Z,2.88
2023-02-11T22:46:29.106Z,2.85
2023-02-11T22:48:56.997Z,2.78
2023-02-11T22:51:28.101Z,2.76
2023-02-11T22:54:01.047Z,2.73
2023-02-11T22:56:30.989Z,2.71
2023-02-11T22:59:05.585Z,2.68
2023-02-11T23:01:34.220Z,2.65
2023-02-11T23:04:04.471Z,2.64
2023-02-11T23:06:32.237Z,2.63
2023-02-11T23:09:00.122Z,2.62
2023-02-11T23:11:30.060Z,2.58
2023-02-11T23:13:58.555Z,2.57
2023-02-11T23:16:30.899Z,2.55
2023-02-11T23:19:00.997Z,2.53
2023-02-11T23:21:31.885Z,2.50
2023-02-11T23:24:03.181Z,2.48
2023-02-11T23:26:31.547Z,2.45
2023-02-11T23:28:59.872Z,2.41
2023-02-11T23:31:35.102Z,2.35
2023-02-11T23:34:04.067Z,2.31
2023-02-11T23:36:32.397Z,2.27
2023-02-11T23:39:00.246Z,2.23
2023-02-11T23:41:28.142Z,2.20
2023-02-11T23:43:57.955Z,2.17
2023-02-11T23:46:27.030Z,2.13
2023-02-11T23:48:55.355Z,2.10
2023-02-11T23:51:24.007Z,2.07
2023-02-11T23:53:53.039Z,2.06
2023-02-11T23:56:24.057Z,2.01
2023-02-11T23:58:54.772Z,1.97
